Terminal Aerodrome Forecast
Issued by NWS Billings, MT

Home | Current Version | Previous Version | Graphics & Text | Print | Product List | Glossary On
Versions: 1 2 3 4 5 6 7 8 9 10 11 12 13 14 15 16 17 18 19 20 21 22 23 24 25 26 27 28 29 30
000
FTUS45 KBYZ 231738
TAFMLS
TAF
KMLS 231738Z 2318/2418 08008KT P6SM SCT035 BKN150
     FM232100 12010KT P6SM FEW030 SCT050 BKN150
     FM240400 12006KT P6SM VCSH FEW014 SCT040 BKN100
     FM241000 08006KT 5SM -SHRA SCT006 OVC014=

USA.gov is the U.S. government's official web portal to all federal, state and local government web resources and services.